Time;durP1;ratioP1;P1;durP2;ratioP2;P2;SDS_P1;SDS_P2;PMS_P1;PMS_P2;Temp;Humidity;BMP_temperature;BMP_pressure;BME280_temperature;BME280_humidity;BME280_pressure;Samples;Min_cycle;Max_cycle;Signal;HPM_P1;HPM_P2
2023/03/23 00:00:59;;;;;;;27.60;14.68;;;;;;;5.52;100.00;94611.25;5048565;28;20262;-75
2023/03/23 00:03:28;;;;;;;28.38;13.70;;;;;;;5.39;100.00;94618.19;5047910;28;20609;-75
2023/03/23 00:05:59;;;;;;;30.55;14.65;;;;;;;5.35;100.00;94614.47;5048340;28;20573;-75
2023/03/23 00:08:26;;;;;;;27.50;13.88;;;;;;;5.35;100.00;94612.59;5047506;28;20261;-76
2023/03/23 00:10:56;;;;;;;26.17;13.77;;;;;;;5.30;100.00;94614.59;5048518;28;20253;-76
2023/03/23 00:13:23;;;;;;;30.48;12.63;;;;;;;5.32;100.00;94613.22;5048055;28;20233;-74
2023/03/23 00:15:51;;;;;;;33.38;14.80;;;;;;;5.35;100.00;94606.44;5048156;28;20199;-75
2023/03/23 00:18:21;;;;;;;31.98;14.77;;;;;;;5.31;100.00;94611.59;5047113;28;20246;-75
2023/03/23 00:20:50;;;;;;;28.80;13.32;;;;;;;5.31;100.00;94619.66;5042051;28;20274;-74
2023/03/23 00:23:20;;;;;;;28.20;13.77;;;;;;;5.30;100.00;94615.38;5047698;28;20277;-76
2023/03/23 00:25:48;;;;;;;24.05;11.95;;;;;;;5.33;100.00;94619.34;5047872;28;20200;-75
2023/03/23 00:28:16;;;;;;;27.80;12.43;;;;;;;5.28;100.00;94614.06;5047893;28;20196;-75
2023/03/23 00:30:44;;;;;;;28.65;14.32;;;;;;;5.26;100.00;94621.63;5047714;28;20203;-75
2023/03/23 00:33:13;;;;;;;27.70;13.65;;;;;;;5.12;100.00;94623.47;5047654;28;20258;-75
2023/03/23 00:35:44;;;;;;;30.92;13.57;;;;;;;5.19;100.00;94623.91;5047768;28;20235;-75
2023/03/23 00:38:12;;;;;;;26.13;11.85;;;;;;;5.10;100.00;94631.00;5047547;28;20311;-75
2023/03/23 00:40:39;;;;;;;28.75;14.25;;;;;;;5.08;100.00;94644.72;5047465;28;20204;-75
2023/03/23 00:43:05;;;;;;;25.98;12.10;;;;;;;5.17;100.00;94634.13;5047955;28;20199;-75
2023/03/23 00:45:34;;;;;;;27.55;12.88;;;;;;;5.15;100.00;94641.69;5046840;28;20736;-75
2023/03/23 00:48:01;;;;;;;25.95;11.70;;;;;;;5.16;100.00;94629.84;5049056;28;20606;-75
2023/03/23 00:50:29;;;;;;;25.13;11.20;;;;;;;5.27;100.00;94633.97;5051087;28;20204;-75
2023/03/23 00:52:56;;;;;;;21.67;11.07;;;;;;;5.33;100.00;94640.84;5051761;28;20286;-75
2023/03/23 00:55:25;;;;;;;25.48;11.10;;;;;;;5.35;100.00;94644.03;5051119;28;20221;-76
2023/03/23 00:57:52;;;;;;;19.85;10.35;;;;;;;5.29;100.00;94637.97;5051096;28;20913;-75
2023/03/23 01:00:19;;;;;;;24.00;10.82;;;;;;;5.32;100.00;94647.31;5050804;28;20235;-75
2023/03/23 01:02:47;;;;;;;24.95;11.45;;;;;;;5.31;100.00;94648.41;5050738;28;20687;-75
2023/03/23 01:05:15;;;;;;;19.45;9.73;;;;;;;5.29;100.00;94639.84;5050727;28;20662;-75
2023/03/23 01:07:44;;;;;;;17.70;7.78;;;;;;;5.24;100.00;94653.34;5050464;28;20195;-75
2023/03/23 01:10:12;;;;;;;19.08;9.15;;;;;;;5.31;100.00;94649.22;5050720;28;20209;-75
2023/03/23 01:12:40;;;;;;;18.83;8.65;;;;;;;5.43;100.00;94645.25;5050610;28;20208;-75
2023/03/23 01:15:07;;;;;;;17.00;8.52;;;;;;;5.45;100.00;94638.50;5050267;28;20228;-75
2023/03/23 01:17:34;;;;;;;14.75;8.00;;;;;;;5.67;100.00;94641.31;5048299;28;20250;-75
2023/03/23 01:20:04;;;;;;;17.80;8.70;;;;;;;5.70;100.00;94639.94;5048125;28;20241;-76
2023/03/23 01:22:30;;;;;;;18.23;9.15;;;;;;;5.71;100.00;94636.97;5050652;28;20239;-76
2023/03/23 01:24:57;;;;;;;15.48;7.65;;;;;;;5.75;100.00;94637.13;5050454;28;20211;-75
2023/03/23 01:27:24;;;;;;;14.95;7.68;;;;;;;5.82;100.00;94631.41;5048360;28;20200;-75
2023/03/23 01:29:52;;;;;;;19.13;9.15;;;;;;;5.90;100.00;94633.41;5050293;28;20245;-76
2023/03/23 01:32:19;;;;;;;18.33;9.40;;;;;;;6.07;100.00;94625.56;5049893;28;20200;-76
2023/03/23 01:34:45;;;;;;;16.45;10.15;;;;;;;6.24;100.00;94633.03;5049114;28;20204;-75
2023/03/23 01:37:12;;;;;;;19.13;9.80;;;;;;;6.18;100.00;94618.88;5047990;28;20269;-76
2023/03/23 01:39:39;;;;;;;19.92;9.80;;;;;;;6.22;100.00;94619.88;5044366;28;20767;-75
2023/03/23 01:42:06;;;;;;;17.98;9.68;;;;;;;6.15;100.00;94618.69;5044943;28;20268;-76
2023/03/23 01:45:15;;;;;;;17.58;8.38;;;;;;;6.06;100.00;94610.50;5047019;28;20258;-75
2023/03/23 01:47:43;;;;;;;20.02;8.75;;;;;;;6.01;100.00;94610.63;5027446;28;20204;-75
2023/03/23 01:50:10;;;;;;;13.43;8.40;;;;;;;5.93;100.00;94611.31;5045543;28;20257;-76
2023/03/23 01:52:37;;;;;;;15.90;8.27;;;;;;;5.91;100.00;94613.50;5047697;28;20649;-75
2023/03/23 01:55:06;;;;;;;17.42;8.75;;;;;;;5.98;100.00;94611.22;5049629;28;20572;-75
2023/03/23 01:57:33;;;;;;;16.33;8.85;;;;;;;5.87;100.00;94601.75;5050222;28;20204;-75
2023/03/23 02:00:07;;;;;;;16.10;7.07;;;;;;;5.81;100.00;94603.72;5042757;28;20227;-76
2023/03/23 02:02:38;;;;;;;14.30;7.78;;;;;;;5.78;100.00;94603.50;5045670;28;20269;-76
2023/03/23 02:05:11;;;;;;;14.55;7.00;;;;;;;5.78;100.00;94600.81;5049881;28;20206;-76
2023/03/23 02:07:38;;;;;;;16.00;8.02;;;;;;;5.77;100.00;94601.91;5050221;28;20257;-76
2023/03/23 02:10:06;;;;;;;13.07;7.03;;;;;;;5.83;100.00;94600.72;5049862;28;20208;-76
2023/03/23 02:12:33;;;;;;;17.38;8.48;;;;;;;5.92;100.00;94607.03;5049767;28;20192;-76
2023/03/23 02:15:00;;;;;;;14.88;7.80;;;;;;;5.98;100.00;94612.03;5049742;28;20232;-76
2023/03/23 02:17:37;;;;;;;17.55;9.05;;;;;;;6.04;100.00;94608.13;5036319;28;20324;-75
2023/03/23 02:20:24;;;;;;;12.95;7.35;;;;;;;6.21;100.00;94602.16;5036492;28;20238;-76
2023/03/23 02:23:24;;;;;;;17.33;8.88;;;;;;;6.28;100.00;94607.13;5046062;28;20269;-76
2023/03/23 02:26:09;;;;;;;14.35;8.02;;;;;;;6.27;100.00;94606.34;5008430;28;20253;-76
2023/03/23 02:28:55;;;;;;;18.52;8.90;;;;;;;6.29;100.00;94608.69;5049477;28;20257;-75
2023/03/23 02:31:38;;;;;;;13.85;7.88;;;;;;;6.17;100.00;94601.16;5009323;28;20297;-75
2023/03/23 02:34:10;;;;;;;18.27;8.80;;;;;;;6.02;100.00;94601.44;5032799;28;20204;-75
2023/03/23 02:36:43;;;;;;;14.10;8.20;;;;;;;5.90;100.00;94612.69;5035226;28;20250;-75
2023/03/23 02:39:14;;;;;;;12.82;7.82;;;;;;;5.80;100.00;94606.69;5048864;28;20319;-75
2023/03/23 02:41:46;;;;;;;15.85;8.15;;;;;;;5.66;100.00;94612.84;5048771;28;20200;-76
2023/03/23 02:44:15;;;;;;;15.57;7.32;;;;;;;5.55;100.00;94611.44;5048924;28;20265;-76
2023/03/23 02:46:44;;;;;;;17.75;8.77;;;;;;;5.49;100.00;94607.25;5049358;28;20258;-75
2023/03/23 02:49:16;;;;;;;13.77;8.07;;;;;;;5.44;100.00;94610.03;5049416;28;20199;-75
2023/03/23 02:51:46;;;;;;;14.88;8.07;;;;;;;5.53;100.00;94618.22;5049563;28;20199;-76
2023/03/23 02:54:14;;;;;;;20.40;8.63;;;;;;;5.50;100.00;94624.16;5049476;28;20224;-76
2023/03/23 02:56:42;;;;;;;21.58;8.75;;;;;;;5.38;100.00;94626.53;5048558;28;20555;-75
2023/03/23 02:59:09;;;;;;;14.93;9.05;;;;;;;5.24;100.00;94632.66;5049226;28;20292;-75
2023/03/23 03:02:07;;;;;;;17.23;7.90;;;;;;;5.18;100.00;94641.09;5046935;28;20258;-76
2023/03/23 03:04:39;;;;;;;19.33;9.25;;;;;;;4.91;100.00;94639.09;4986948;28;20664;-76
2023/03/23 03:07:30;;;;;;;16.75;8.77;;;;;;;4.79;100.00;94652.94;5036536;28;20210;-76
2023/03/23 03:10:02;;;;;;;17.02;9.35;;;;;;;4.72;100.00;94655.19;5048630;28;20200;-75
2023/03/23 03:12:37;;;;;;;24.63;11.02;;;;;;;4.77;100.00;94660.50;5048580;28;20295;-76
2023/03/23 03:15:14;;;;;;;17.00;8.75;;;;;;;4.85;100.00;94662.53;5048462;28;20222;-77
2023/03/23 03:17:47;;;;;;;29.77;12.45;;;;;;;4.81;100.00;94674.13;5049863;28;20253;-76
2023/03/23 03:20:16;;;;;;;54.40;28.50;;;;;;;4.76;100.00;94666.97;5048475;28;20771;-76
2023/03/23 03:22:45;;;;;;;71.78;33.17;;;;;;;4.81;100.00;94666.88;5048544;28;20265;-74
2023/03/23 03:25:15;;;;;;;57.00;27.85;;;;;;;4.81;100.00;94666.88;5041389;28;20872;-76
2023/03/23 03:27:45;;;;;;;93.32;35.60;;;;;;;4.82;100.00;94679.19;5062034;28;20764;-77
2023/03/23 03:30:16;;;;;;;68.93;34.35;;;;;;;4.87;100.00;94668.41;5048897;28;20200;-75
2023/03/23 03:32:48;;;;;;;70.95;34.85;;;;;;;4.86;100.00;94653.38;5047875;28;20294;-76
2023/03/23 03:35:17;;;;;;;63.85;33.80;;;;;;;4.96;100.00;94660.47;5049195;28;20207;-76
2023/03/23 03:37:44;;;;;;;56.75;31.92;;;;;;;5.06;100.00;94667.59;5035496;28;20207;-74
2023/03/23 03:40:14;;;;;;;64.00;33.35;;;;;;;5.12;100.00;94672.59;5035280;28;20236;-75
2023/03/23 03:42:41;;;;;;;59.05;31.20;;;;;;;5.21;100.00;94675.41;5055469;28;20195;-75
2023/03/23 03:45:10;;;;;;;64.05;32.45;;;;;;;5.25;100.00;94665.69;5054249;28;20658;-75
2023/03/23 03:47:37;;;;;;;74.53;32.10;;;;;;;5.27;100.00;94668.88;5059969;28;20249;-75
2023/03/23 03:50:05;;;;;;;73.70;31.17;;;;;;;5.23;100.00;94662.47;5061431;28;20207;-75
2023/03/23 03:52:34;;;;;;;101.63;29.83;;;;;;;5.05;100.00;94666.00;5056650;28;20202;-76
2023/03/23 03:55:00;;;;;;;72.50;29.42;;;;;;;5.04;100.00;94667.09;5056996;28;20200;-75
2023/03/23 03:57:27;;;;;;;60.28;27.83;;;;;;;4.95;100.00;94662.38;5052188;28;20203;-76
2023/03/23 03:59:54;;;;;;;58.85;28.40;;;;;;;4.77;100.00;94665.88;5067245;28;20306;-76
2023/03/23 04:02:21;;;;;;;53.95;29.30;;;;;;;4.97;100.00;94670.13;5058004;28;20207;-75
2023/03/23 04:04:48;;;;;;;50.30;29.15;;;;;;;5.13;100.00;94657.28;5065558;28;20338;-75
2023/03/23 04:07:16;;;;;;;48.50;26.35;;;;;;;5.17;100.00;94659.09;5058142;28;20202;-76
2023/03/23 04:09:46;;;;;;;25.08;13.82;;;;;;;5.09;100.00;94657.06;5055868;28;20234;-77
2023/03/23 04:12:13;;;;;;;26.05;11.10;;;;;;;5.15;100.00;94652.44;5059599;28;20233;-79
2023/03/23 04:14:40;;;;;;;20.40;12.70;;;;;;;5.10;100.00;94657.84;5062487;28;20227;-75
2023/03/23 04:17:08;;;;;;;25.23;12.07;;;;;;;4.83;100.00;94658.53;5047738;28;20215;-77
2023/03/23 04:19:36;;;;;;;26.00;12.50;;;;;;;5.06;100.00;94651.50;5029691;28;20699;-75
2023/03/23 04:22:04;;;;;;;24.25;12.02;;;;;;;5.07;100.00;94650.38;5037414;28;20314;-76
2023/03/23 04:24:33;;;;;;;24.35;14.40;;;;;;;5.24;100.00;94664.09;5046130;28;20200;-75
2023/03/23 04:27:01;;;;;;;32.42;15.35;;;;;;;5.33;100.00;94667.69;5043697;28;20276;-75
2023/03/23 04:29:28;;;;;;;29.90;15.20;;;;;;;5.18;100.00;94663.38;5045375;28;20215;-78
2023/03/23 04:31:55;;;;;;;31.70;13.07;;;;;;;5.34;100.00;94669.28;5051710;28;20200;-77
2023/03/23 04:34:23;;;;;;;25.30;12.90;;;;;;;5.41;100.00;94658.97;5047835;28;20207;-77
2023/03/23 04:36:51;;;;;;;27.27;13.77;;;;;;;5.38;100.00;94664.94;5043282;28;20228;-75
2023/03/23 04:39:18;;;;;;;28.27;13.30;;;;;;;5.47;100.00;94660.47;5040042;28;20203;-76
2023/03/23 04:41:45;;;;;;;22.30;12.27;;;;;;;5.52;100.00;94660.41;5038524;28;20204;-76
2023/03/23 04:44:17;;;;;;;31.08;13.85;;;;;;;5.40;100.00;94668.13;5050408;28;20682;-75
2023/03/23 04:46:49;;;;;;;28.05;14.32;;;;;;;5.29;100.00;94672.06;5047673;28;20192;-77
2023/03/23 04:49:21;;;;;;;28.85;13.20;;;;;;;5.22;100.00;94666.25;5051329;28;20258;-76
2023/03/23 04:51:50;;;;;;;28.50;11.65;;;;;;;5.46;100.00;94666.97;5045555;28;20234;-77
2023/03/23 04:54:17;;;;;;;26.92;14.20;;;;;;;5.24;100.00;94669.47;5044317;28;20206;-77
2023/03/23 04:56:44;;;;;;;37.92;21.75;;;;;;;5.43;100.00;94670.22;5045526;28;20257;-76
2023/03/23 04:59:12;;;;;;;28.95;13.00;;;;;;;5.35;100.00;94681.63;5041438;28;20203;-75
2023/03/23 05:01:45;;;;;;;27.35;12.13;;;;;;;5.36;100.00;94688.59;5048745;28;20203;-77
2023/03/23 05:04:12;;;;;;;29.42;13.55;;;;;;;5.36;100.00;94683.22;5051002;28;20211;-76
2023/03/23 05:06:40;;;;;;;30.15;13.25;;;;;;;5.49;100.00;94681.66;5050962;28;20200;-76
2023/03/23 05:09:07;;;;;;;30.85;15.93;;;;;;;5.66;100.00;94682.72;5047752;28;20213;-76
2023/03/23 05:11:34;;;;;;;36.05;20.70;;;;;;;5.85;100.00;94679.19;5043811;28;20207;-79
2023/03/23 05:14:00;;;;;;;40.60;20.40;;;;;;;5.80;100.00;94681.94;5041934;28;20255;-78
2023/03/23 05:16:28;;;;;;;24.95;13.02;;;;;;;5.96;100.00;94684.09;5048598;28;20257;-76
2023/03/23 05:18:58;;;;;;;24.30;10.77;;;;;;;5.82;100.00;94695.91;5045618;28;20294;-74
2023/03/23 05:21:25;;;;;;;25.05;12.95;;;;;;;5.69;100.00;94692.88;5068472;28;20321;-78
2023/03/23 05:23:54;;;;;;;26.25;13.25;;;;;;;5.72;100.00;94696.88;5070487;28;20238;-76
2023/03/23 05:26:21;;;;;;;26.25;14.02;;;;;;;5.80;100.00;94684.66;5069946;28;20210;-76
2023/03/23 05:28:52;;;;;;;33.85;13.20;;;;;;;6.32;100.00;94694.97;5061194;28;20199;-76
2023/03/23 05:31:19;;;;;;;20.17;11.27;;;;;;;6.58;100.00;94689.09;5060979;28;20203;-76
2023/03/23 05:33:46;;;;;;;26.38;11.88;;;;;;;8.70;100.00;94684.97;5068975;28;20279;-78
2023/03/23 05:36:14;;;;;;;33.28;15.93;;;;;;;7.79;99.67;94702.47;5070681;28;20199;-77
2023/03/23 05:38:44;;;;;;;19.23;9.90;;;;;;;7.00;99.47;94704.06;5070691;28;20199;-78
2023/03/23 05:41:11;;;;;;;25.50;12.07;;;;;;;8.08;100.00;94698.50;5070330;28;20262;-77
2023/03/23 05:43:38;;;;;;;25.45;12.95;;;;;;;9.72;100.00;94683.44;5069715;28;20611;-78
2023/03/23 05:46:05;;;;;;;29.17;14.65;;;;;;;9.00;96.50;94694.09;5062260;28;20203;-78
2023/03/23 05:48:32;;;;;;;25.33;11.10;;;;;;;9.42;100.00;94698.75;5065400;28;20721;-78
2023/03/23 05:50:59;;;;;;;28.45;14.35;;;;;;;8.94;95.66;94706.97;5070584;28;20207;-77
2023/03/23 05:53:29;;;;;;;26.27;13.40;;;;;;;8.49;94.76;94699.03;5069487;28;20891;-77
2023/03/23 05:55:59;;;;;;;21.63;11.85;;;;;;;8.45;93.42;94703.50;5069662;28;20875;-76
2023/03/23 05:58:26;;;;;;;22.67;11.52;;;;;;;8.60;93.09;94706.88;5069411;28;20215;-77
2023/03/23 06:00:53;;;;;;;19.13;10.45;;;;;;;8.78;93.19;94703.91;5069804;28;20227;-75
2023/03/23 06:03:20;;;;;;;22.45;10.63;;;;;;;8.88;92.84;94710.94;5069879;28;20203;-76
2023/03/23 06:05:47;;;;;;;22.70;13.00;;;;;;;9.17;90.97;94710.31;5070237;28;20207;-75
2023/03/23 06:08:14;;;;;;;23.85;11.65;;;;;;;9.48;88.77;94704.78;5069624;28;20787;-76
2023/03/23 06:10:42;;;;;;;24.50;11.55;;;;;;;9.79;87.43;94713.53;5069187;28;20336;-75
2023/03/23 06:13:09;;;;;;;23.95;12.13;;;;;;;9.92;86.07;94704.44;5068748;28;20292;-75
2023/03/23 06:15:35;;;;;;;22.30;11.35;;;;;;;9.91;84.68;94705.53;5068339;28;20199;-75
2023/03/23 06:18:03;;;;;;;19.10;11.25;;;;;;;10.47;84.27;94709.09;5062910;28;20224;-75
2023/03/23 06:20:30;;;;;;;18.73;10.48;;;;;;;10.21;83.50;94717.28;5044367;28;20281;-75
2023/03/23 06:22:57;;;;;;;21.95;12.57;;;;;;;9.72;85.40;94710.47;5031031;28;20200;-75
2023/03/23 06:25:24;;;;;;;24.73;12.05;;;;;;;10.05;84.63;94713.47;5039100;28;20217;-74
2023/03/23 06:27:52;;;;;;;19.08;10.15;;;;;;;9.97;83.03;94717.81;5037105;28;20513;-74
2023/03/23 06:30:20;;;;;;;20.70;10.90;;;;;;;10.16;83.67;94719.34;5039999;28;20689;-74
2023/03/23 06:32:47;;;;;;;19.65;10.73;;;;;;;10.04;83.98;94708.38;5042957;28;20212;-75
2023/03/23 06:35:15;;;;;;;28.80;16.50;;;;;;;9.88;82.88;94719.72;5042705;28;20196;-75
2023/03/23 06:37:42;;;;;;;20.88;12.07;;;;;;;10.51;84.29;94704.63;5037646;28;20262;-75
2023/03/23 06:40:09;;;;;;;25.52;12.75;;;;;;;11.15;80.15;94706.34;5042733;28;20223;-75
2023/03/23 06:42:36;;;;;;;21.17;11.98;;;;;;;11.46;78.88;94708.69;5035903;28;20312;-74
2023/03/23 06:45:07;;;;;;;21.67;11.52;;;;;;;11.62;79.90;94705.03;5035281;28;20231;-74
2023/03/23 06:47:34;;;;;;;29.80;17.83;;;;;;;12.03;75.96;94714.28;5041341;28;20208;-75
2023/03/23 06:50:01;;;;;;;18.92;11.18;;;;;;;11.80;74.79;94711.13;5042541;28;20235;-75
2023/03/23 06:52:28;;;;;;;20.25;11.60;;;;;;;12.06;76.79;94725.25;5036490;28;20298;-75
2023/03/23 06:54:55;;;;;;;22.52;11.50;;;;;;;13.99;71.28;94711.19;5035726;28;20264;-75
2023/03/23 06:57:22;;;;;;;23.80;14.95;;;;;;;14.61;68.00;94715.22;5040131;28;20197;-75
2023/03/23 06:59:49;;;;;;;20.88;10.73;;;;;;;14.45;64.91;94714.41;5042212;28;20265;-75
2023/03/23 07:02:17;;;;;;;26.08;16.30;;;;;;;15.22;64.93;94712.03;5036614;28;20285;-75
2023/03/23 07:04:43;;;;;;;24.10;12.23;;;;;;;15.74;62.94;94705.41;5035263;28;20266;-76
2023/03/23 07:07:14;;;;;;;23.92;12.40;;;;;;;16.19;59.65;94704.75;5040949;28;20196;-75
2023/03/23 07:09:42;;;;;;;22.70;11.10;;;;;;;16.20;58.56;94690.72;5041781;28;20561;-74
2023/03/23 07:12:09;;;;;;;21.33;10.70;;;;;;;16.16;58.42;94706.25;5037424;28;20682;-75
2023/03/23 07:14:36;;;;;;;19.50;12.10;;;;;;;16.03;59.46;94701.31;5035241;28;20313;-74
2023/03/23 07:17:04;;;;;;;24.55;14.77;;;;;;;15.40;60.18;94704.25;5039381;28;20238;-75
2023/03/23 07:19:32;;;;;;;19.98;13.98;;;;;;;15.46;60.56;94705.53;5041516;28;20240;-75
2023/03/23 07:21:59;;;;;;;21.83;10.85;;;;;;;15.23;62.30;94708.94;5038395;28;20231;-75
2023/03/23 07:24:26;;;;;;;23.98;14.20;;;;;;;15.73;60.16;94696.41;5048319;28;20339;-75
2023/03/23 07:26:53;;;;;;;25.80;14.48;;;;;;;15.34;61.17;94703.72;5037612;28;20211;-75
2023/03/23 07:29:20;;;;;;;20.38;10.93;;;;;;;13.80;63.74;94719.22;5043010;28;20200;-75
2023/03/23 07:31:46;;;;;;;21.10;9.90;;;;;;;13.83;64.49;94713.06;5037299;28;20610;-75
2023/03/23 07:34:13;;;;;;;28.65;14.93;;;;;;;14.28;64.22;94706.53;5041874;28;20782;-75
2023/03/23 07:36:41;;;;;;;23.90;14.88;;;;;;;14.16;64.06;94705.44;5039348;28;20249;-75
2023/03/23 07:39:08;;;;;;;28.05;16.20;;;;;;;13.73;66.51;94716.28;5034735;28;20203;-74
2023/03/23 07:41:35;;;;;;;27.48;17.17;;;;;;;13.70;66.00;94712.31;5036561;28;20232;-74
2023/03/23 07:44:02;;;;;;;26.95;17.02;;;;;;;13.58;66.14;94719.72;5041962;28;20204;-76
2023/03/23 07:46:29;;;;;;;28.23;17.65;;;;;;;13.52;67.55;94721.91;5039900;28;20204;-74
2023/03/23 07:48:56;;;;;;;21.48;14.23;;;;;;;12.88;67.08;94727.22;5034581;28;20203;-75
2023/03/23 07:51:23;;;;;;;23.45;14.90;;;;;;;12.63;68.93;94738.09;5036768;28;20200;-74
2023/03/23 07:53:52;;;;;;;22.15;15.00;;;;;;;12.52;69.24;94731.50;5041586;28;20242;-75
2023/03/23 07:56:19;;;;;;;27.65;15.77;;;;;;;12.42;68.87;94732.75;5031733;28;20199;-75
2023/03/23 07:58:46;;;;;;;24.25;15.65;;;;;;;12.33;69.10;94729.31;5033786;28;20717;-74
2023/03/23 08:01:13;;;;;;;21.17;14.70;;;;;;;12.79;69.37;94730.88;5035014;28;20290;-76
2023/03/23 08:03:40;;;;;;;20.60;11.48;;;;;;;12.60;68.62;94733.31;5041575;28;20258;-74
2023/03/23 08:06:08;;;;;;;25.75;15.50;;;;;;;12.66;68.44;94731.97;5041014;28;20204;-75
2023/03/23 08:08:35;;;;;;;24.95;16.17;;;;;;;13.07;68.44;94727.47;5034215;28;20678;-75
2023/03/23 08:11:04;;;;;;;24.95;15.48;;;;;;;12.97;67.25;94736.09;5034308;28;20240;-75
2023/03/23 08:13:30;;;;;;;23.02;14.45;;;;;;;13.35;66.18;94736.56;5034036;28;20640;-75
2023/03/23 08:15:57;;;;;;;27.10;15.57;;;;;;;13.39;65.84;94729.28;5034008;28;20211;-75
2023/03/23 08:18:24;;;;;;;24.48;15.57;;;;;;;13.63;65.34;94733.09;5043790;28;20227;-75
2023/03/23 08:20:53;;;;;;;21.65;14.77;;;;;;;13.80;64.18;94735.56;5054612;28;20257;-75
2023/03/23 08:23:21;;;;;;;19.95;12.95;;;;;;;13.40;63.70;94733.56;5055582;28;20213;-76
2023/03/23 08:25:48;;;;;;;17.02;11.30;;;;;;;12.90;63.80;94730.41;5065443;28;20199;-75
2023/03/23 08:28:16;;;;;;;19.83;13.05;;;;;;;13.10;64.17;94729.53;5055963;28;20265;-75
2023/03/23 08:30:43;;;;;;;22.98;14.10;;;;;;;13.71;63.27;94721.28;5050257;28;20670;-74
2023/03/23 08:33:11;;;;;;;25.45;15.05;;;;;;;13.73;63.13;94727.16;5058308;28;20211;-75
2023/03/23 08:35:38;;;;;;;20.83;14.05;;;;;;;13.74;63.46;94726.03;5060201;28;20681;-76
2023/03/23 08:38:05;;;;;;;19.83;12.73;;;;;;;13.94;61.96;94730.50;5048923;28;20212;-75
2023/03/23 08:40:33;;;;;;;17.98;12.15;;;;;;;13.75;60.66;94722.19;5053247;28;20678;-75
2023/03/23 08:43:00;;;;;;;23.02;13.70;;;;;;;13.75;61.17;94722.19;5057631;28;20310;-75
2023/03/23 08:45:28;;;;;;;21.00;13.27;;;;;;;14.13;62.29;94727.94;5060215;28;20310;-75
2023/03/23 08:47:55;;;;;;;19.50;10.20;;;;;;;14.37;58.56;94720.75;5056711;28;20775;-75
2023/03/23 08:50:24;;;;;;;14.73;8.50;;;;;;;14.55;56.00;94722.06;5053048;28;20203;-74
2023/03/23 08:52:52;;;;;;;12.48;7.90;;;;;;;14.60;54.78;94724.53;5055963;28;20211;-75
2023/03/23 08:55:20;;;;;;;10.55;6.63;;;;;;;14.05;54.12;94715.25;5054871;28;20203;-75
2023/03/23 08:57:47;;;;;;;13.40;7.75;;;;;;;14.08;54.67;94728.16;5056924;28;20207;-75
2023/03/23 09:00:18;;;;;;;13.50;8.88;;;;;;;14.29;54.54;94719.00;5053415;28;20653;-74
2023/03/23 09:02:48;;;;;;;10.70;7.90;;;;;;;14.51;55.81;94726.63;5055438;28;20231;-75
2023/03/23 09:05:15;;;;;;;11.23;7.50;;;;;;;13.99;56.63;94727.53;5059908;28;20703;-74
2023/03/23 09:07:44;;;;;;;10.25;6.95;;;;;;;14.17;54.46;94728.84;5058678;28;20257;-75
2023/03/23 09:10:11;;;;;;;10.65;7.00;;;;;;;14.46;54.83;94726.91;5056428;28;20199;-75
2023/03/23 09:12:38;;;;;;;10.02;6.78;;;;;;;14.41;53.66;94722.50;5057214;28;20215;-75
2023/03/23 09:15:08;;;;;;;13.63;8.40;;;;;;;14.62;53.34;94722.25;5062569;28;20578;-75
2023/03/23 09:17:37;;;;;;;12.02;7.68;;;;;;;15.19;52.43;94712.72;5063108;28;20840;-75
2023/03/23 09:20:10;;;;;;;11.55;7.40;;;;;;;15.23;52.87;94725.31;5057216;28;20206;-75
2023/03/23 09:22:38;;;;;;;10.20;7.25;;;;;;;16.07;51.60;94713.91;5057227;28;20322;-76
2023/03/23 09:25:06;;;;;;;8.30;6.30;;;;;;;16.47;50.15;94699.03;5069888;28;20661;-75
2023/03/23 09:27:32;;;;;;;13.55;6.90;;;;;;;16.96;49.85;94710.88;5053777;28;20293;-75
2023/03/23 09:30:00;;;;;;;10.15;7.20;;;;;;;16.79;49.41;94700.44;5064318;28;20203;-75
2023/03/23 09:32:27;;;;;;;13.75;8.00;;;;;;;16.19;49.41;94700.09;5056241;28;20609;-74
2023/03/23 09:34:55;;;;;;;11.85;7.10;;;;;;;15.11;51.28;94705.53;5060032;28;20196;-76
2023/03/23 09:37:23;;;;;;;11.98;7.47;;;;;;;14.16;53.81;94710.91;5066877;28;20287;-75
2023/03/23 09:39:51;;;;;;;11.65;7.47;;;;;;;14.58;52.85;94710.47;5058829;28;20963;-74
2023/03/23 09:42:38;;;;;;;11.60;7.18;;;;;;;15.39;52.22;94695.25;5061550;28;20231;-75
2023/03/23 09:45:13;;;;;;;9.82;6.63;;;;;;;15.73;51.77;94692.88;5055768;28;20204;-75
2023/03/23 09:47:50;;;;;;;10.88;6.65;;;;;;;14.98;50.96;94706.78;5055926;28;20207;-77
2023/03/23 09:50:20;;;;;;;10.48;6.60;;;;;;;14.45;52.23;94717.13;5062727;28;20665;-75
2023/03/23 09:52:54;;;;;;;11.95;7.65;;;;;;;14.48;52.90;94703.59;5059794;28;20215;-75
2023/03/23 09:55:22;;;;;;;12.50;7.82;;;;;;;13.92;54.42;94705.56;5064237;28;20676;-74
2023/03/23 09:57:56;;;;;;;15.32;7.82;;;;;;;13.83;54.80;94707.63;5061136;28;20203;-75
2023/03/23 10:00:27;;;;;;;11.55;7.68;;;;;;;14.14;55.06;94699.53;5063028;28;20206;-77
2023/03/23 10:03:02;;;;;;;11.55;7.45;;;;;;;13.88;54.99;94704.66;5063093;28;20230;-75
2023/03/23 10:05:33;;;;;;;11.63;7.10;;;;;;;13.93;54.76;94706.34;5054270;28;20550;-74
2023/03/23 10:08:05;;;;;;;11.27;7.35;;;;;;;14.17;54.24;94696.13;5055864;28;20216;-77
2023/03/23 10:10:55;;;;;;;14.05;8.30;;;;;;;13.96;54.15;94684.63;5060030;28;20227;-76
2023/03/23 10:13:40;;;;;;;10.10;7.07;;;;;;;14.70;53.95;94693.22;5055113;28;20706;-76
2023/03/23 10:16:12;;;;;;;11.23;7.10;;;;;;;15.07;52.39;94685.53;5057396;28;20209;-75
2023/03/23 10:18:43;;;;;;;9.90;6.38;;;;;;;15.04;52.28;94688.97;5058767;28;20292;-74
2023/03/23 10:21:14;;;;;;;10.52;6.85;;;;;;;15.53;50.74;94673.72;5055043;28;20210;-74
2023/03/23 10:23:53;;;;;;;10.27;6.97;;;;;;;15.93;51.26;94672.63;5069095;28;20620;-76
2023/03/23 10:26:37;;;;;;;10.60;7.18;;;;;;;15.90;49.68;94673.34;5062251;28;20663;-74
2023/03/23 10:29:15;;;;;;;10.15;6.90;;;;;;;15.58;50.52;94676.19;5059506;28;20192;-75
2023/03/23 10:31:46;;;;;;;9.23;5.82;;;;;;;16.05;50.65;94667.00;5048573;28;20215;-76
2023/03/23 10:34:17;;;;;;;8.18;6.18;;;;;;;16.19;51.03;94675.47;5062321;28;20294;-76
2023/03/23 10:36:57;;;;;;;9.07;6.38;;;;;;;16.24;49.94;94664.25;5060660;28;20199;-75
2023/03/23 10:39:32;;;;;;;9.57;6.40;;;;;;;15.40;50.99;94675.00;5048786;28;20229;-74
2023/03/23 10:42:06;;;;;;;8.27;6.38;;;;;;;15.05;50.79;94685.09;5050343;28;20313;-74
2023/03/23 10:44:34;;;;;;;11.48;6.68;;;;;;;14.76;53.88;94673.50;5057873;28;20200;-74
2023/03/23 10:47:02;;;;;;;8.52;5.90;;;;;;;14.89;52.31;94672.28;5054715;28;20256;-75
2023/03/23 10:49:34;;;;;;;14.10;6.55;;;;;;;14.84;51.50;94680.75;5068711;28;20203;-76
2023/03/23 10:52:10;;;;;;;10.02;6.75;;;;;;;14.94;50.84;94673.94;5050935;28;20231;-76
2023/03/23 10:54:47;;;;;;;9.80;6.78;;;;;;;14.85;51.16;94670.63;5048497;28;20603;-75
2023/03/23 10:57:23;;;;;;;8.75;6.47;;;;;;;15.02;51.05;94658.56;5055635;28;20214;-74
2023/03/23 10:59:51;;;;;;;8.65;6.15;;;;;;;15.39;50.51;94657.03;5054697;28;20203;-74
2023/03/23 11:02:19;;;;;;;9.88;6.22;;;;;;;15.80;49.64;94660.28;5059239;28;20362;-75
2023/03/23 11:04:56;;;;;;;8.25;6.05;;;;;;;15.93;48.50;94658.97;5061379;28;20203;-77
2023/03/23 11:07:28;;;;;;;9.60;5.95;;;;;;;15.95;49.59;94653.94;5058781;28;20213;-76
2023/03/23 11:09:58;;;;;;;9.43;6.20;;;;;;;15.97;49.35;94654.38;5055687;28;20295;-76
2023/03/23 11:12:26;;;;;;;9.63;6.35;;;;;;;15.80;49.17;94660.28;5068275;28;20227;-75
2023/03/23 11:14:52;;;;;;;9.23;7.10;;;;;;;15.64;49.10;94658.41;5054926;28;20202;-75
2023/03/23 11:17:26;;;;;;;9.88;6.45;;;;;;;15.32;51.02;94645.97;5068128;28;20253;-76
2023/03/23 11:19:54;;;;;;;9.18;6.38;;;;;;;15.74;50.20;94645.31;5061458;28;20212;-78
2023/03/23 11:22:27;;;;;;;8.05;5.65;;;;;;;15.88;48.66;94640.13;5047769;28;20211;-78
2023/03/23 11:24:56;;;;;;;9.18;5.80;;;;;;;15.73;48.84;94639.06;5052102;28;20832;-76
2023/03/23 11:27:26;;;;;;;8.10;6.35;;;;;;;15.56;48.48;94639.50;5055017;28;20265;-76
2023/03/23 11:29:56;;;;;;;7.47;5.85;;;;;;;15.45;48.93;94638.44;5064184;28;20288;-76
2023/03/23 11:32:26;;;;;;;10.02;6.18;;;;;;;15.14;49.93;94633.88;5065679;28;20233;-77